Terminal Aerodrome Forecast
Issued by NWS Wilmington, OH

Current Version | Previous Version | Graphics & Text | Print | Product List | Glossary On
Versions: 1 2 3 4 5 6 7 8 9 10 11 12 13 14 15 16 17 18 19 20 21 22
000
FTUS41 KILN 261500 AAA
TAFILN
TAF AMD
KILN 261515Z 2615/2712 19014G22KT P6SM SCT035
     FM261900 19016G24KT P6SM VCTS BKN040CB
      TEMPO 2620/2623 3SM TSRA BR OVC020CB
     FM270200 21014KT P6SM SCT040 BKN250
     FM270600 20012KT P6SM BKN010=

USA.gov is the U.S. government's official web portal to all federal, state and local government web resources and services.